Algoma Niagara — CFFO — position and weather

sailwx.info

Track history (hours):
 
Tides and Currents Weather Stations Pressure Air Temp Water Temp Dewpoint Dewpoint Depression Visibility Wind Speed Wind Dir Waves Ship Positions

Algoma Niagara

Last reported at 2018-Jul-17 06:01 UTC. Time now 2018-Jul-17 05:56 UTC.
Position N 46°59' W 091°42'.

Length 226 m; draft 7 m.

Type: Cargo ship. MMSI: 316034846.

Date/timePositionNaut miles runAvg speedWind from/ knotsBaromVisibWave heightAir tempDewpointWater temp
2018-Jul-17 06:01N 46°59' W 091°42'0 0.0
2018-Jul-17 05:30N 46°59' W 091°42'0 0.0
2018-Jul-17 05:01N 46°59' W 091°42'0 0.0
2018-Jul-17 04:30N 46°59' W 091°42'0 0.3
2018-Jul-17 04:00N 46°59' W 091°42'0 0.2
2018-Jul-17 03:31N 46°59' W 091°42'0 0.1
2018-Jul-17 03:00N 46°59' W 091°42'0 0.0
2018-Jul-17 02:30N 46°59' W 091°42'1 1.7
2018-Jul-17 02:00N 46°59' W 091°41'26113.0
2018-Jul-16 05:52N 46°50' W 085°19'513.4
2018-Jul-16 05:30N 46°49' W 085°12'713.5
2018-Jul-16 05:00N 46°48' W 085°03'612.7
2018-Jul-16 04:30N 46°45' W 084°54'714.0
2018-Jul-16 04:00N 46°39' W 084°48'57 5.7
2018-Jul-15 17:57N 45°55' W 083°56'0 0.3
2018-Jul-15 17:30N 45°55' W 083°56'4 7.2
2018-Jul-15 17:00N 45°53' W 084°00'714.1
2018-Jul-15 16:30N 45°51' W 084°09'712.9
2018-Jul-15 15:58N 45°51' W 084°19'914.1
2018-Jul-15 15:20N 45°51' W 084°32'412.8
2018-Jul-15 15:00N 45°50' W 084°38'5 9.4
2018-Jul-15 14:29N 45°49' W 084°45'612.0
2018-Jul-15 14:00N 45°49' W 084°53'714.0
2018-Jul-15 13:30N 45°50' W 085°03'5 9.6
2018-Jul-15 12:59N 45°46' W 085°09'510.6
2018-Jul-15 12:28N 45°42' W 085°13'612.7
2018-Jul-15 12:01N 45°37' W 085°18'714.3
2018-Jul-15 11:31N 45°31' W 085°24'714.2
2018-Jul-15 11:00N 45°26' W 085°30'714.4
2018-Jul-15 10:30N 45°20' W 085°36'814.4
2018-Jul-15 09:59N 45°14' W 085°43'714.3
2018-Jul-15 09:31N 45°08' W 085°48'714.2
2018-Jul-15 09:00N 45°03' W 085°54'1513.9
2018-Jul-15 07:56N 44°55' W 086°12'614.0
2018-Jul-15 07:30N 44°49' W 086°16'  
2018-Jul-12 15:45N 45°01' W 086°22'1113.7
2018-Jul-12 14:58N 45°12' W 086°18'613.6
2018-Jul-12 14:30N 45°18' W 086°16'713.5
2018-Jul-12 14:00N 45°24' W 086°13'713.4
2018-Jul-12 13:30N 45°31' W 086°11'713.3
2018-Jul-12 13:00N 45°37' W 086°09'612.5
2018-Jul-12 12:30N 45°43' W 086°04'713.5
2018-Jul-12 12:00N 45°46' W 085°56'713.5
2018-Jul-12 11:30N 45°49' W 085°48'713.3
2018-Jul-12 11:00N 45°52' W 085°39'713.1
2018-Jul-12 10:30N 45°54' W 085°30'713.4
2018-Jul-12 10:00N 45°53' W 085°20'713.5
2018-Jul-12 09:30N 45°52' W 085°11'713.5
2018-Jul-12 09:00N 45°51' W 085°01'713.5
2018-Jul-12 08:30N 45°50' W 084°51'713.5
2018-Jul-12 08:00N 45°49' W 084°42'713.7
2018-Jul-12 07:29N 45°45' W 084°34'713.5
2018-Jul-12 07:00N 45°42' W 084°25'612.5
2018-Jul-12 06:30N 45°41' W 084°16'713.7
2018-Jul-12 05:59N 45°38' W 084°07'713.4
2018-Jul-12 05:29N 45°35' W 083°58'613.4
2018-Jul-12 05:00N 45°33' W 083°50'713.8
2018-Jul-12 04:30N 45°30' W 083°41'712.8
2018-Jul-12 03:59N 45°27' W 083°32'713.4
2018-Jul-12 03:30N 45°25' W 083°24'  
2018-Jul-08 04:47N 45°13' W 074°02'4 6.7
2018-Jul-08 04:08N 45°16' W 073°57'1 7.3
2018-Jul-08 03:59N 45°17' W 073°56'1 2.8
2018-Jul-08 03:31N 45°18' W 073°56'1 1.2
2018-Jul-08 03:00N 45°19' W 073°55'0 0.6
2018-Jul-08 02:31N 45°19' W 073°55'1 1.8
2018-Jul-08 02:00N 45°20' W 073°54'3 6.4
2018-Jul-08 01:28N 45°22' W 073°50'5 9.9
2018-Jul-08 01:00N 45°24' W 073°45'3 6.8
2018-Jul-08 00:30N 45°25' W 073°40'3 5.4
2018-Jul-08 00:00N 45°24' W 073°37'2 3.4
2018-Jul-07 23:30N 45°24' W 073°34'0 0.5
2018-Jul-07 23:01N 45°24' W 073°34'1 1.7
2018-Jul-07 22:31N 45°24' W 073°33'2 4.4
2018-Jul-07 22:00N 45°26' W 073°30'3 6.1
2018-Jul-07 21:31N 45°29' W 073°31'1 1.8
2018-Jul-07 21:01N 45°30' W 073°31'0 0.0
2018-Jul-07 20:30N 45°30' W 073°31'0 1.0
2018-Jul-07 20:00N 45°30' W 073°31'11 6.1
2018-Jul-07 18:15N 45°41' W 073°27'3 9.6
2018-Jul-07 17:59N 45°43' W 073°26'510.1
2018-Jul-07 17:30N 45°47' W 073°22'4 8.8
2018-Jul-07 17:01N 45°50' W 073°17'5 9.9
2018-Jul-07 16:30N 45°54' W 073°13'510.0
2018-Jul-07 16:01N 45°59' W 073°11'5 9.2
2018-Jul-07 15:30N 46°03' W 073°09'510.1
2018-Jul-07 15:01N 46°05' W 073°02'8810.0
2018-Jul-07 06:18N 46°49' W 071°12'1 2.4
2018-Jul-07 05:48N 46°50' W 071°12'  
Track history (hours):
 
Tides and Currents Weather Stations Pressure Air Temp Water Temp Dewpoint Dewpoint Depression Visibility Wind Speed Wind Dir Waves Ship Positions

Algoma Niagara

Last reported at 2018-Jul-17 06:01 UTC. Time now 2018-Jul-17 05:56 UTC.
Position N 46°59' W 091°42'.

Length 226 m; draft 7 m.

Type: Cargo ship. MMSI: 316034846.

Date/timePositionNaut miles runAvg speedWind from/ knotsBaromVisibWave heightAir tempDewpointWater temp
2018-Jul-17 06:01N 46°59' W 091°42'0 0.0
2018-Jul-17 05:30N 46°59' W 091°42'0 0.0
2018-Jul-17 05:01N 46°59' W 091°42'0 0.0
2018-Jul-17 04:30N 46°59' W 091°42'0 0.3
2018-Jul-17 04:00N 46°59' W 091°42'0 0.2
2018-Jul-17 03:31N 46°59' W 091°42'0 0.1
2018-Jul-17 03:00N 46°59' W 091°42'0 0.0
2018-Jul-17 02:30N 46°59' W 091°42'1 1.7
2018-Jul-17 02:00N 46°59' W 091°41'26113.0
2018-Jul-16 05:52N 46°50' W 085°19'513.4
2018-Jul-16 05:30N 46°49' W 085°12'713.5
2018-Jul-16 05:00N 46°48' W 085°03'612.7
2018-Jul-16 04:30N 46°45' W 084°54'714.0
2018-Jul-16 04:00N 46°39' W 084°48'57 5.7
2018-Jul-15 17:57N 45°55' W 083°56'0 0.3
2018-Jul-15 17:30N 45°55' W 083°56'4 7.2
2018-Jul-15 17:00N 45°53' W 084°00'714.1
2018-Jul-15 16:30N 45°51' W 084°09'712.9
2018-Jul-15 15:58N 45°51' W 084°19'914.1
2018-Jul-15 15:20N 45°51' W 084°32'412.8
2018-Jul-15 15:00N 45°50' W 084°38'5 9.4
2018-Jul-15 14:29N 45°49' W 084°45'612.0
2018-Jul-15 14:00N 45°49' W 084°53'714.0
2018-Jul-15 13:30N 45°50' W 085°03'5 9.6
2018-Jul-15 12:59N 45°46' W 085°09'510.6
2018-Jul-15 12:28N 45°42' W 085°13'612.7
2018-Jul-15 12:01N 45°37' W 085°18'714.3
2018-Jul-15 11:31N 45°31' W 085°24'714.2
2018-Jul-15 11:00N 45°26' W 085°30'714.4
2018-Jul-15 10:30N 45°20' W 085°36'814.4
2018-Jul-15 09:59N 45°14' W 085°43'714.3
2018-Jul-15 09:31N 45°08' W 085°48'714.2
2018-Jul-15 09:00N 45°03' W 085°54'1513.9
2018-Jul-15 07:56N 44°55' W 086°12'614.0
2018-Jul-15 07:30N 44°49' W 086°16'  
2018-Jul-12 15:45N 45°01' W 086°22'1113.7
2018-Jul-12 14:58N 45°12' W 086°18'613.6
2018-Jul-12 14:30N 45°18' W 086°16'713.5
2018-Jul-12 14:00N 45°24' W 086°13'713.4
2018-Jul-12 13:30N 45°31' W 086°11'713.3
2018-Jul-12 13:00N 45°37' W 086°09'612.5
2018-Jul-12 12:30N 45°43' W 086°04'713.5
2018-Jul-12 12:00N 45°46' W 085°56'713.5
2018-Jul-12 11:30N 45°49' W 085°48'713.3
2018-Jul-12 11:00N 45°52' W 085°39'713.1
2018-Jul-12 10:30N 45°54' W 085°30'713.4
2018-Jul-12 10:00N 45°53' W 085°20'713.5
2018-Jul-12 09:30N 45°52' W 085°11'713.5
2018-Jul-12 09:00N 45°51' W 085°01'713.5
2018-Jul-12 08:30N 45°50' W 084°51'713.5
2018-Jul-12 08:00N 45°49' W 084°42'713.7
2018-Jul-12 07:29N 45°45' W 084°34'713.5
2018-Jul-12 07:00N 45°42' W 084°25'612.5
2018-Jul-12 06:30N 45°41' W 084°16'713.7
2018-Jul-12 05:59N 45°38' W 084°07'713.4
2018-Jul-12 05:29N 45°35' W 083°58'613.4
2018-Jul-12 05:00N 45°33' W 083°50'713.8
2018-Jul-12 04:30N 45°30' W 083°41'712.8
2018-Jul-12 03:59N 45°27' W 083°32'713.4
2018-Jul-12 03:30N 45°25' W 083°24'  
2018-Jul-08 04:47N 45°13' W 074°02'4 6.7
2018-Jul-08 04:08N 45°16' W 073°57'1 7.3
2018-Jul-08 03:59N 45°17' W 073°56'1 2.8
2018-Jul-08 03:31N 45°18' W 073°56'1 1.2
2018-Jul-08 03:00N 45°19' W 073°55'0 0.6
2018-Jul-08 02:31N 45°19' W 073°55'1 1.8
2018-Jul-08 02:00N 45°20' W 073°54'3 6.4
2018-Jul-08 01:28N 45°22' W 073°50'5 9.9
2018-Jul-08 01:00N 45°24' W 073°45'3 6.8
2018-Jul-08 00:30N 45°25' W 073°40'3 5.4
2018-Jul-08 00:00N 45°24' W 073°37'2 3.4
2018-Jul-07 23:30N 45°24' W 073°34'0 0.5
2018-Jul-07 23:01N 45°24' W 073°34'1 1.7
2018-Jul-07 22:31N 45°24' W 073°33'2 4.4
2018-Jul-07 22:00N 45°26' W 073°30'3 6.1
2018-Jul-07 21:31N 45°29' W 073°31'1 1.8
2018-Jul-07 21:01N 45°30' W 073°31'0 0.0
2018-Jul-07 20:30N 45°30' W 073°31'0 1.0
2018-Jul-07 20:00N 45°30' W 073°31'11 6.1
2018-Jul-07 18:15N 45°41' W 073°27'3 9.6
2018-Jul-07 17:59N 45°43' W 073°26'510.1
2018-Jul-07 17:30N 45°47' W 073°22'4 8.8
2018-Jul-07 17:01N 45°50' W 073°17'5 9.9
2018-Jul-07 16:30N 45°54' W 073°13'510.0
2018-Jul-07 16:01N 45°59' W 073°11'5 9.2
2018-Jul-07 15:30N 46°03' W 073°09'510.1
2018-Jul-07 15:01N 46°05' W 073°02'8810.0
2018-Jul-07 06:18N 46°49' W 071°12'1 2.4
2018-Jul-07 05:48N 46°50' W 071°12'  

Dump ship's entire track history